Time;durP1;ratioP1;P1;durP2;ratioP2;P2;SDS_P1;SDS_P2;PMS_P1;PMS_P2;Temp;Humidity;BMP_temperature;BMP_pressure;BME280_temperature;BME280_humidity;BME280_pressure;Samples;Min_cycle;Max_cycle;Signal;HPM_P1;HPM_P2
2022/01/30 00:16:37;;;;;;;9.55;6.60;;;;;;;-0.59;64.65;94765.46;833226;71;31773;-78
2022/01/30 00:46:44;;;;;;;11.28;6.70;;;;;;;-0.61;64.30;94732.20;824152;71;32308;-79
2022/01/30 01:01:39;;;;;;;13.30;6.62;;;;;;;-0.58;64.05;94710.87;833110;71;32796;-78
2022/01/30 01:46:44;;;;;;;;;;;;;;;;;;;;;
2022/01/30 02:02:04;;;;;;;;;;;;;;;;;;;;;
2022/01/30 03:01:49;;;;;;;10.53;8.20;;;;;;;-1.92;65.38;94503.48;833120;71;31610;-80
2022/01/30 04:02:08;;;;;;;;;;;;;;;;;;;;;
2022/01/30 05:01:36;;;;;;;14.58;9.55;;;;;;;-2.41;67.97;94501.15;833194;70;33267;-78
2022/01/30 05:16:33;;;;;;;16.37;8.88;;;;;;;-2.29;67.30;94456.28;833513;71;32849;-81
2022/01/30 06:01:15;;;;;;;14.53;10.13;;;;;;;-1.35;65.86;94449.36;826910;71;32982;-78
2022/01/30 06:16:10;;;;;;;12.88;9.55;;;;;;;-1.23;64.70;94415.98;833221;71;28750;-76
2022/01/30 06:31:09;;;;;;;19.20;10.98;;;;;;;-1.39;64.91;94377.96;826587;71;29597;-76
2022/01/30 06:46:11;;;;;;;16.17;10.53;;;;;;;-1.43;65.76;94402.05;828028;71;27432;-78
2022/01/30 07:01:15;;;;;;;17.80;10.28;;;;;;;-1.32;65.22;94397.95;818169;70;32759;-77
2022/01/30 07:16:10;;;;;;;24.43;13.80;;;;;;;-1.25;65.66;94385.30;834114;71;30380;-79
2022/01/30 07:31:18;;;;;;;28.57;14.70;;;;;;;-0.82;64.57;94399.80;832976;71;32747;-74
2022/01/30 07:46:13;;;;;;;24.18;13.70;;;;;;;-0.70;63.62;94421.74;827600;71;32555;-77
2022/01/30 08:01:09;;;;;;;22.55;12.37;;;;;;;-0.22;62.35;94387.86;835149;71;29715;-76
2022/01/30 08:16:09;;;;;;;19.45;12.07;;;;;;;0.21;61.70;94334.38;827741;71;30274;-78
2022/01/30 08:31:09;;;;;;;17.05;11.80;;;;;;;1.60;59.21;94352.15;827477;71;30737;-76
2022/01/30 08:46:09;;;;;;;23.62;12.88;;;;;;;2.84;56.27;94344.21;833550;71;30115;-78
2022/01/30 09:01:13;;;;;;;20.62;12.80;;;;;;;4.44;50.77;94350.14;829716;71;32052;-78
2022/01/30 09:16:10;;;;;;;21.85;15.63;;;;;;;5.15;48.43;94354.81;835726;70;30296;-79
2022/01/30 09:31:09;;;;;;;21.00;13.35;;;;;;;4.81;48.25;94348.75;817426;71;30350;-79
2022/01/30 09:46:09;;;;;;;22.60;13.60;;;;;;;5.83;45.89;94279.92;829753;70;29710;-82
2022/01/30 10:01:12;;;;;;;19.42;13.22;;;;;;;6.33;45.50;94233.73;795735;72;32377;-81
2022/01/30 10:16:15;;;;;;;22.05;13.22;;;;;;;7.84;45.27;94211.79;835497;70;32826;-81
2022/01/30 10:31:12;;;;;;;18.12;12.13;;;;;;;8.38;42.35;94242.04;823650;71;32235;-79
2022/01/30 10:46:26;;;;;;;25.50;11.75;;;;;;;8.27;41.36;94207.14;829686;71;30269;-78
2022/01/30 11:01:16;;;;;;;21.12;14.25;;;;;;;8.47;40.49;94153.86;829509;71;32038;-78
2022/01/30 11:31:20;;;;;;;20.95;14.85;;;;;;;8.86;39.91;94115.65;828477;71;32755;-81
2022/01/30 11:46:17;;;;;;;19.42;12.40;;;;;;;8.63;40.96;94095.83;823958;71;30274;-83
2022/01/30 12:01:27;;;;;;;22.00;13.32;;;;;;;7.87;41.70;94070.20;826196;71;28745;-82
2022/01/30 12:16:10;;;;;;;20.77;13.60;;;;;;;7.31;42.96;94072.15;827452;71;28623;-78
2022/01/30 12:31:34;;;;;;;21.52;13.88;;;;;;;6.44;44.73;94036.42;827920;71;28796;-82
2022/01/30 12:46:15;;;;;;;22.00;13.32;;;;;;;6.08;45.80;94024.41;826883;71;31699;-78
2022/01/30 13:01:11;;;;;;;20.05;13.48;;;;;;;6.11;46.48;94011.39;822047;71;28847;-77
2022/01/30 13:16:11;;;;;;;19.70;12.93;;;;;;;6.20;47.29;93971.98;820465;71;29335;-77
2022/01/30 13:31:15;;;;;;;21.80;14.78;;;;;;;6.66;47.26;93973.42;821211;71;28885;-78
2022/01/30 14:01:18;;;;;;;5.10;3.70;;;;;;;7.04;49.58;93931.84;816716;71;31889;-79
2022/01/30 14:16:17;;;;;;;7.30;4.33;;;;;;;7.11;50.12;93926.50;821767;71;28739;-78
2022/01/30 14:31:20;;;;;;;8.03;5.60;;;;;;;7.46;51.63;93929.75;827792;71;28808;-79
2022/01/30 14:46:08;;;;;;;5.47;4.65;;;;;;;7.12;49.63;93929.38;828965;71;28680;-76
2022/01/30 15:01:09;;;;;;;7.28;4.70;;;;;;;6.97;49.14;93923.02;811780;71;28887;-79
2022/01/30 15:31:26;;;;;;;7.15;6.45;;;;;;;6.43;52.18;94013.50;835851;70;31754;-82
